Time;durP1;ratioP1;P1;durP2;ratioP2;P2;SDS_P1;SDS_P2;PMS_P1;PMS_P2;Temp;Humidity;BMP_temperature;BMP_pressure;BME280_temperature;BME280_humidity;BME280_pressure;Samples;Min_cycle;Max_cycle;Signal;HPM_P1;HPM_P2
2021/07/26 00:01:52;;;;;;;21.70;20.00;;;;;;;;;;5053247;28;20563;-62
2021/07/26 00:04:18;;;;;;;24.17;22.07;;;;;;;;;;5052540;28;20300;-63
2021/07/26 00:06:44;;;;;;;23.00;21.10;;;;;;;;;;5053050;28;20243;-63
2021/07/26 00:09:09;;;;;;;24.20;22.17;;;;;;;;;;5053256;28;20269;-62
2021/07/26 00:11:34;;;;;;;25.20;23.20;;;;;;;;;;5051121;28;20468;-63
2021/07/26 00:14:00;;;;;;;24.13;22.10;;;;;;;;;;5053340;28;20300;-62
2021/07/26 00:16:25;;;;;;;24.67;22.63;;;;;;;;;;5053445;28;20723;-63
2021/07/26 00:18:50;;;;;;;23.67;21.30;;;;;;;;;;5052217;28;20395;-63
2021/07/26 00:21:16;;;;;;;23.20;21.40;;;;;;;;;;5052962;28;20221;-63
2021/07/26 00:23:41;;;;;;;24.70;22.70;;;;;;;;;;5053066;28;20213;-63
2021/07/26 00:26:06;;;;;;;22.60;20.63;;;;;;;;;;5052934;28;20292;-63
2021/07/26 00:28:31;;;;;;;25.03;22.63;;;;;;;;;;5052213;28;20209;-63
2021/07/26 00:30:57;;;;;;;26.03;23.87;;;;;;;;;;5053144;28;20220;-62
2021/07/26 00:34:20;;;;;;;24.53;22.63;;;;;;;;;;5053035;28;20720;-62
2021/07/26 00:36:58;;;;;;;24.50;22.37;;;;;;;;;;5030465;28;20218;-62
2021/07/26 00:39:26;;;;;;;25.23;23.13;;;;;;;;;;5031388;28;20798;-62
2021/07/26 00:41:52;;;;;;;25.00;23.07;;;;;;;;;;5046489;28;20455;-63
2021/07/26 00:44:18;;;;;;;24.40;22.33;;;;;;;;;;5055733;28;20930;-63
2021/07/26 00:46:47;;;;;;;24.97;22.83;;;;;;;;;;5056924;28;20217;-63
2021/07/26 00:49:16;;;;;;;24.87;22.77;;;;;;;;;;5056207;28;20538;-63
2021/07/26 00:51:44;;;;;;;27.37;25.17;;;;;;;;;;5056120;28;20483;-62
2021/07/26 00:54:10;;;;;;;25.60;23.37;;;;;;;;;;5062747;28;20508;-63
2021/07/26 00:56:36;;;;;;;25.37;23.37;;;;;;;;;;5075583;28;20827;-62
2021/07/26 00:59:02;;;;;;;26.00;23.90;;;;;;;;;;5056464;28;20645;-62
2021/07/26 01:01:27;;;;;;;25.20;23.10;;;;;;;;;;5056077;28;20466;-62
2021/07/26 01:03:53;;;;;;;24.50;22.60;;;;;;;;;;5056690;28;20593;-63
2021/07/26 01:06:19;;;;;;;27.40;24.60;;;;;;;;;;5055790;28;20251;-63
2021/07/26 01:08:45;;;;;;;24.83;22.80;;;;;;;;;;5055828;28;20213;-63
2021/07/26 01:11:10;;;;;;;25.13;23.03;;;;;;;;;;5055600;28;20456;-63
2021/07/26 01:13:35;;;;;;;24.37;22.37;;;;;;;;;;5055960;28;20253;-63
2021/07/26 01:16:01;;;;;;;25.80;23.40;;;;;;;;;;5055602;28;20244;-63
2021/07/26 01:18:30;;;;;;;23.53;21.70;;;;;;;;;;5055792;28;20271;-62
2021/07/26 01:20:59;;;;;;;26.67;24.47;;;;;;;;;;5056296;28;20213;-63
2021/07/26 01:23:25;;;;;;;24.07;22.07;;;;;;;;;;5055128;28;20444;-63
2021/07/26 01:25:51;;;;;;;25.70;23.60;;;;;;;;;;5055870;28;20791;-63
2021/07/26 01:28:18;;;;;;;22.40;20.60;;;;;;;;;;5055710;28;20448;-62
2021/07/26 01:30:44;;;;;;;23.27;21.30;;;;;;;;;;5055222;28;20213;-63
2021/07/26 01:33:11;;;;;;;22.83;20.93;;;;;;;;;;5055172;28;20452;-63
2021/07/26 01:35:37;;;;;;;24.23;22.13;;;;;;;;;;5055996;28;20452;-63
2021/07/26 01:38:03;;;;;;;25.07;22.80;;;;;;;;;;5054173;28;20545;-63
2021/07/26 01:40:29;;;;;;;22.90;21.10;;;;;;;;;;5055078;28;21885;-63
2021/07/26 01:43:01;;;;;;;23.97;21.83;;;;;;;;;;5056008;28;20542;-62
2021/07/26 01:45:27;;;;;;;20.90;19.20;;;;;;;;;;5055184;28;20217;-63
2021/07/26 01:47:54;;;;;;;23.70;21.80;;;;;;;;;;5055201;28;20787;-63
2021/07/26 01:50:20;;;;;;;23.30;21.20;;;;;;;;;;5054086;28;20467;-62
2021/07/26 01:52:46;;;;;;;22.90;20.90;;;;;;;;;;5054732;28;20800;-62
2021/07/26 01:55:12;;;;;;;23.60;21.40;;;;;;;;;;5057998;28;20553;-63
2021/07/26 01:57:38;;;;;;;22.60;20.57;;;;;;;;;;5055085;28;20511;-63
2021/07/26 02:00:04;;;;;;;23.87;21.87;;;;;;;;;;5055465;28;20213;-62
2021/07/26 02:02:31;;;;;;;22.87;20.87;;;;;;;;;;5054786;28;20312;-63
2021/07/26 02:04:58;;;;;;;22.00;20.00;;;;;;;;;;5054699;28;20460;-63
2021/07/26 02:07:23;;;;;;;22.30;20.60;;;;;;;;;;5054907;28;20474;-62
2021/07/26 02:09:48;;;;;;;22.93;21.10;;;;;;;;;;5053964;28;20463;-63
2021/07/26 02:12:14;;;;;;;24.13;22.13;;;;;;;;;;5053794;28;20240;-63
2021/07/26 02:14:39;;;;;;;23.20;21.40;;;;;;;;;;5055263;28;20227;-64
2021/07/26 02:17:04;;;;;;;22.57;20.77;;;;;;;;;;5055058;28;20221;-63
2021/07/26 02:19:29;;;;;;;23.63;21.73;;;;;;;;;;5053858;28;20227;-62
2021/07/26 02:21:55;;;;;;;22.33;20.53;;;;;;;;;;5054865;28;20201;-62
2021/07/26 02:24:20;;;;;;;24.63;22.63;;;;;;;;;;5054699;28;20217;-62
2021/07/26 02:26:45;;;;;;;24.17;22.17;;;;;;;;;;5054316;28;20299;-62
2021/07/26 02:29:11;;;;;;;23.33;21.40;;;;;;;;;;5054070;28;20209;-62
2021/07/26 02:31:36;;;;;;;23.97;22.00;;;;;;;;;;5055109;28;20220;-63
2021/07/26 02:34:01;;;;;;;23.30;21.50;;;;;;;;;;5054533;28;20213;-63
2021/07/26 02:36:27;;;;;;;23.60;21.70;;;;;;;;;;5053643;28;20292;-63
2021/07/26 02:38:52;;;;;;;25.03;23.03;;;;;;;;;;5054731;28;20308;-64
2021/07/26 02:41:17;;;;;;;24.33;22.43;;;;;;;;;;5053973;28;20217;-62
2021/07/26 02:43:43;;;;;;;23.87;22.07;;;;;;;;;;5054147;28;20252;-63
2021/07/26 02:46:09;;;;;;;24.73;22.63;;;;;;;;;;5054035;28;20220;-63
2021/07/26 02:48:35;;;;;;;25.20;23.20;;;;;;;;;;5054719;28;20229;-63
2021/07/26 02:51:00;;;;;;;26.17;23.93;;;;;;;;;;5052877;28;20513;-63
2021/07/26 02:53:26;;;;;;;26.13;23.83;;;;;;;;;;5054015;28;20784;-63
2021/07/26 02:55:51;;;;;;;24.80;22.53;;;;;;;;;;5074472;28;20228;-63
2021/07/26 02:58:16;;;;;;;25.03;22.87;;;;;;;;;;5060680;28;20213;-63
2021/07/26 03:00:45;;;;;;;23.77;21.77;;;;;;;;;;5053683;28;20366;-63
2021/07/26 03:03:10;;;;;;;26.30;24.03;;;;;;;;;;5053820;28;20213;-62
2021/07/26 03:05:35;;;;;;;25.27;23.27;;;;;;;;;;5054013;28;20915;-62
2021/07/26 03:08:01;;;;;;;24.93;22.93;;;;;;;;;;5053605;28;20209;-63
2021/07/26 03:10:26;;;;;;;25.27;23.27;;;;;;;;;;5053404;28;20312;-63
2021/07/26 03:12:51;;;;;;;24.13;22.23;;;;;;;;;;5054052;28;20221;-63
2021/07/26 03:15:18;;;;;;;24.90;22.80;;;;;;;;;;5053034;28;20316;-63
2021/07/26 03:17:43;;;;;;;24.63;22.63;;;;;;;;;;5053644;28;20706;-63
2021/07/26 03:20:09;;;;;;;25.57;23.27;;;;;;;;;;5053647;28;20467;-63
2021/07/26 03:22:56;;;;;;;26.53;24.13;;;;;;;;;;5053537;28;20213;-63
2021/07/26 03:25:21;;;;;;;24.47;22.57;;;;;;;;;;5053180;28;20275;-62
2021/07/26 03:27:50;;;;;;;24.70;22.83;;;;;;;;;;5054190;28;20459;-63
2021/07/26 03:30:16;;;;;;;25.33;23.30;;;;;;;;;;5052895;28;20225;-62
2021/07/26 03:32:42;;;;;;;24.50;22.50;;;;;;;;;;5053255;28;20927;-62
2021/07/26 03:35:08;;;;;;;25.83;23.57;;;;;;;;;;5053957;28;20472;-62
2021/07/26 03:37:33;;;;;;;25.47;23.20;;;;;;;;;;5053209;28;20209;-63
2021/07/26 03:39:58;;;;;;;25.40;23.40;;;;;;;;;;5053092;28;20789;-63
2021/07/26 03:42:24;;;;;;;26.87;24.67;;;;;;;;;;5053139;28;20252;-63
2021/07/26 03:44:49;;;;;;;25.67;23.57;;;;;;;;;;5053836;28;20653;-64
2021/07/26 03:47:14;;;;;;;25.40;23.30;;;;;;;;;;5052754;28;20216;-63
2021/07/26 03:49:40;;;;;;;26.93;24.50;;;;;;;;;;5053107;28;20240;-63
2021/07/26 03:52:05;;;;;;;26.10;24.00;;;;;;;;;;5053698;28;20728;-63
2021/07/26 03:54:30;;;;;;;27.17;24.77;;;;;;;;;;5052728;28;20236;-63
2021/07/26 03:56:57;;;;;;;27.70;25.20;;;;;;;;;;5052752;28;20216;-63
2021/07/26 03:59:22;;;;;;;28.60;26.30;;;;;;;;;;5053037;28;20300;-63
2021/07/26 04:01:47;;;;;;;30.67;28.27;;;;;;;;;;5053277;28;20900;-63
2021/07/26 04:04:12;;;;;;;33.30;30.50;;;;;;;;;;5052283;28;20213;-63
2021/07/26 04:06:39;;;;;;;35.53;32.53;;;;;;;;;;5053409;28;20296;-63
2021/07/26 04:09:07;;;;;;;38.57;35.33;;;;;;;;;;5053360;28;20296;-63
2021/07/26 04:11:38;;;;;;;42.63;38.63;;;;;;;;;;5051932;28;20440;-63
2021/07/26 04:14:05;;;;;;;43.50;39.87;;;;;;;;;;5053136;28;20459;-63
2021/07/26 04:16:30;;;;;;;42.43;38.80;;;;;;;;;;5055526;28;20443;-63
2021/07/26 04:18:57;;;;;;;42.10;38.13;;;;;;;;;;5056722;28;20456;-63
2021/07/26 04:21:29;;;;;;;39.43;36.10;;;;;;;;;;5056380;28;20221;-63
2021/07/26 04:23:55;;;;;;;37.70;34.30;;;;;;;;;;5057357;28;20491;-63
2021/07/26 04:26:20;;;;;;;41.30;37.20;;;;;;;;;;5056374;28;20818;-64
2021/07/26 04:28:46;;;;;;;38.07;34.30;;;;;;;;;;5052960;28;20456;-63
2021/07/26 04:31:11;;;;;;;37.87;34.27;;;;;;;;;;5060942;28;20617;-64
2021/07/26 04:33:36;;;;;;;38.50;34.83;;;;;;;;;;5062613;28;20221;-64
2021/07/26 04:36:02;;;;;;;38.40;34.90;;;;;;;;;;5060253;28;20225;-63
2021/07/26 04:38:27;;;;;;;35.63;32.43;;;;;;;;;;5057002;28;20251;-63
2021/07/26 04:40:52;;;;;;;36.20;33.00;;;;;;;;;;5070243;28;20209;-64
2021/07/26 04:43:17;;;;;;;34.20;31.10;;;;;;;;;;5060756;28;20228;-64
2021/07/26 04:45:43;;;;;;;32.20;29.57;;;;;;;;;;5059285;28;20220;-64
2021/07/26 04:48:08;;;;;;;34.40;31.17;;;;;;;;;;5066831;28;20225;-63
2021/07/26 04:50:33;;;;;;;33.20;30.30;;;;;;;;;;5060329;28;20596;-63
2021/07/26 04:52:59;;;;;;;32.93;30.03;;;;;;;;;;5058573;28;20278;-62
2021/07/26 04:55:24;;;;;;;32.53;29.63;;;;;;;;;;5069119;28;20275;-63
2021/07/26 04:57:51;;;;;;;33.97;30.93;;;;;;;;;;5056920;28;20668;-63
2021/07/26 05:00:17;;;;;;;32.47;29.57;;;;;;;;;;5058104;28;20550;-64
2021/07/26 05:02:42;;;;;;;32.83;29.97;;;;;;;;;;5066105;28;20538;-62
2021/07/26 05:05:08;;;;;;;32.90;29.90;;;;;;;;;;5062685;28;20225;-62
2021/07/26 05:07:33;;;;;;;33.67;30.57;;;;;;;;;;5055221;28;20225;-64
2021/07/26 05:09:58;;;;;;;30.53;27.97;;;;;;;;;;5056769;28;20213;-62
2021/07/26 05:12:24;;;;;;;29.27;26.80;;;;;;;;;;5065004;28;20355;-64
2021/07/26 05:14:51;;;;;;;29.53;27.03;;;;;;;;;;5060751;28;20362;-63
2021/07/26 05:17:22;;;;;;;30.30;27.50;;;;;;;;;;5055213;28;20668;-64
2021/07/26 05:19:48;;;;;;;31.77;29.17;;;;;;;;;;5069235;28;20461;-63
2021/07/26 05:22:13;;;;;;;29.67;27.23;;;;;;;;;;5057293;28;21998;-62
2021/07/26 05:24:38;;;;;;;29.23;26.93;;;;;;;;;;5058579;28;20231;-63
2021/07/26 05:27:04;;;;;;;30.83;28.03;;;;;;;;;;5063248;28;20368;-63
2021/07/26 05:29:31;;;;;;;29.63;27.07;;;;;;;;;;5046322;28;20294;-63
2021/07/26 05:31:58;;;;;;;29.50;27.10;;;;;;;;;;5057661;28;20456;-63
2021/07/26 05:34:23;;;;;;;28.07;25.70;;;;;;;;;;5068509;28;20520;-63
2021/07/26 05:36:48;;;;;;;27.97;25.57;;;;;;;;;;5064058;28;20467;-63
2021/07/26 05:39:14;;;;;;;28.93;26.63;;;;;;;;;;5059379;28;20279;-62
2021/07/26 05:41:39;;;;;;;29.60;26.90;;;;;;;;;;5056383;28;20240;-63
2021/07/26 05:44:04;;;;;;;29.70;27.10;;;;;;;;;;5069081;28;20216;-62
2021/07/26 05:46:30;;;;;;;30.37;27.53;;;;;;;;;;5057849;28;20233;-64
2021/07/26 05:48:55;;;;;;;28.27;26.00;;;;;;;;;;5055848;28;20609;-63
2021/07/26 05:51:20;;;;;;;31.03;28.23;;;;;;;;;;5067110;28;20275;-63
2021/07/26 05:53:46;;;;;;;30.87;28.40;;;;;;;;;;5065168;28;20282;-64
2021/07/26 05:56:11;;;;;;;31.13;27.97;;;;;;;;;;5056624;28;20308;-63
2021/07/26 05:58:41;;;;;;;29.17;26.67;;;;;;;;;;5068646;28;20277;-62
2021/07/26 06:01:21;;;;;;;29.23;26.67;;;;;;;;;;5063146;28;20240;-64
2021/07/26 06:03:46;;;;;;;27.90;25.37;;;;;;;;;;5054339;28;20448;-64
2021/07/26 06:06:11;;;;;;;31.17;28.63;;;;;;;;;;5055125;28;20456;-63
2021/07/26 06:08:37;;;;;;;32.67;29.97;;;;;;;;;;5068171;28;20218;-63
2021/07/26 06:11:02;;;;;;;31.80;29.20;;;;;;;;;;5054969;28;20232;-65
2021/07/26 06:13:28;;;;;;;31.57;29.10;;;;;;;;;;5057125;28;20259;-64
2021/07/26 06:15:54;;;;;;;31.20;28.60;;;;;;;;;;5065377;28;20236;-63
2021/07/26 06:18:19;;;;;;;31.57;29.00;;;;;;;;;;5062879;28;20458;-63
2021/07/26 06:20:44;;;;;;;30.43;27.90;;;;;;;;;;5056511;28;20300;-64
2021/07/26 06:23:09;;;;;;;30.20;27.70;;;;;;;;;;5061782;28;20232;-64
2021/07/26 06:25:35;;;;;;;30.00;27.50;;;;;;;;;;5060065;28;20300;-64
2021/07/26 06:28:00;;;;;;;31.97;29.57;;;;;;;;;;5056192;28;20531;-64
2021/07/26 06:30:25;;;;;;;29.90;27.50;;;;;;;;;;5043908;28;20217;-63
2021/07/26 06:32:53;;;;;;;33.13;30.33;;;;;;;;;;5054818;28;20533;-64
2021/07/26 06:35:19;;;;;;;30.17;27.67;;;;;;;;;;5054170;28;20224;-64
2021/07/26 06:37:44;;;;;;;30.17;27.77;;;;;;;;;;5061306;28;20464;-63
2021/07/26 06:40:10;;;;;;;29.53;26.90;;;;;;;;;;5058837;28;20276;-64
2021/07/26 06:42:35;;;;;;;30.47;27.53;;;;;;;;;;5061894;28;20738;-64
2021/07/26 06:45:00;;;;;;;28.30;25.70;;;;;;;;;;5057572;28;20265;-64
2021/07/26 06:47:26;;;;;;;28.10;25.83;;;;;;;;;;5063245;28;20225;-64
2021/07/26 06:49:51;;;;;;;29.33;26.63;;;;;;;;;;5053792;28;20552;-64
2021/07/26 06:52:16;;;;;;;28.33;25.63;;;;;;;;;;5057066;28;20225;-64
2021/07/26 06:54:41;;;;;;;27.17;24.97;;;;;;;;;;5061295;28;20687;-63
2021/07/26 06:57:07;;;;;;;28.00;25.70;;;;;;;;;;5061550;28;20217;-63
2021/07/26 06:59:32;;;;;;;27.90;25.63;;;;;;;;;;5056275;28;20228;-64
2021/07/26 07:01:57;;;;;;;26.50;24.10;;;;;;;;;;5059535;28;20701;-64
2021/07/26 07:04:22;;;;;;;25.80;23.80;;;;;;;;;;5057610;28;20223;-64
2021/07/26 07:06:48;;;;;;;25.80;23.70;;;;;;;;;;5059450;28;20303;-64
2021/07/26 07:09:14;;;;;;;25.87;23.60;;;;;;;;;;5055395;28;20213;-64
2021/07/26 07:11:40;;;;;;;26.00;23.80;;;;;;;;;;5063496;28;20215;-64
2021/07/26 07:14:05;;;;;;;26.17;23.97;;;;;;;;;;5058857;28;21002;-64
2021/07/26 07:16:30;;;;;;;25.53;23.33;;;;;;;;;;5052972;28;20229;-64
2021/07/26 07:18:57;;;;;;;22.70;20.63;;;;;;;;;;5056292;28;20220;-63
2021/07/26 07:21:27;;;;;;;20.97;19.17;;;;;;;;;;5063903;28;20475;-64
2021/07/26 07:23:53;;;;;;;24.30;21.83;;;;;;;;;;5053708;28;20282;-63
2021/07/26 07:26:19;;;;;;;22.10;20.27;;;;;;;;;;5063714;28;20467;-64
2021/07/26 07:28:44;;;;;;;22.50;20.33;;;;;;;;;;5054191;28;21016;-63
2021/07/26 07:31:10;;;;;;;23.80;21.50;;;;;;;;;;5054905;28;20294;-64
2021/07/26 07:33:35;;;;;;;22.43;20.53;;;;;;;;;;5055239;28;20291;-64
2021/07/26 07:36:04;;;;;;;21.17;19.37;;;;;;;;;;5064450;28;20316;-63
2021/07/26 07:38:29;;;;;;;22.43;19.97;;;;;;;;;;5057794;28;20221;-63
2021/07/26 07:40:55;;;;;;;20.53;18.57;;;;;;;;;;5055579;28;20467;-64
2021/07/26 07:43:21;;;;;;;21.83;20.13;;;;;;;;;;5056188;28;20304;-65
2021/07/26 07:45:46;;;;;;;22.70;20.80;;;;;;;;;;5063684;28;20939;-64
2021/07/26 07:48:12;;;;;;;22.90;21.00;;;;;;;;;;5055086;28;20232;-63
2021/07/26 07:50:37;;;;;;;21.67;19.83;;;;;;;;;;5061535;28;20228;-64
2021/07/26 07:53:03;;;;;;;23.33;21.37;;;;;;;;;;5060026;28;20227;-64
2021/07/26 07:55:29;;;;;;;20.97;19.33;;;;;;;;;;5056006;28;20225;-64
2021/07/26 07:57:54;;;;;;;21.97;20.00;;;;;;;;;;5052580;28;20466;-64
2021/07/26 08:00:20;;;;;;;21.60;19.67;;;;;;;;;;5062543;28;20884;-64
2021/07/26 08:02:46;;;;;;;20.20;18.60;;;;;;;;;;5057919;28;20209;-63
2021/07/26 08:05:11;;;;;;;19.47;17.87;;;;;;;;;;5052985;28;20593;-63
2021/07/26 08:07:36;;;;;;;19.63;18.13;;;;;;;;;;5066328;28;20393;-64
2021/07/26 08:10:04;;;;;;;20.60;18.50;;;;;;;;;;5054152;28;20225;-64
2021/07/26 08:12:32;;;;;;;20.17;18.37;;;;;;;;;;5050840;28;20576;-63
2021/07/26 08:14:58;;;;;;;21.13;19.27;;;;;;;;;;5052144;28;20541;-64
2021/07/26 08:17:23;;;;;;;21.53;19.83;;;;;;;;;;5060871;28;20797;-64
2021/07/26 08:19:48;;;;;;;20.00;18.17;;;;;;;;;;5052089;28;20470;-64
2021/07/26 08:22:13;;;;;;;18.87;17.33;;;;;;;;;;5051240;28;20330;-63
2021/07/26 08:24:39;;;;;;;20.67;18.97;;;;;;;;;;5064574;28;20247;-64
2021/07/26 08:27:05;;;;;;;19.73;18.13;;;;;;;;;;5058174;28;20227;-64
2021/07/26 08:29:30;;;;;;;18.80;17.17;;;;;;;;;;5042387;28;20798;-64
2021/07/26 08:31:55;;;;;;;18.27;16.83;;;;;;;;;;5062047;28;20221;-63
2021/07/26 08:34:21;;;;;;;17.77;16.17;;;;;;;;;;5056992;28;20213;-64
2021/07/26 08:36:46;;;;;;;18.20;16.53;;;;;;;;;;5054060;28;20304;-63
2021/07/26 08:39:11;;;;;;;17.47;15.77;;;;;;;;;;5063961;28;20636;-64
2021/07/26 08:41:36;;;;;;;17.57;16.07;;;;;;;;;;5064197;28;20304;-64
2021/07/26 08:44:02;;;;;;;17.93;16.53;;;;;;;;;;5038349;28;20229;-63
2021/07/26 08:46:28;;;;;;;20.20;18.53;;;;;;;;;;5064968;28;20209;-64
2021/07/26 08:48:54;;;;;;;19.03;17.10;;;;;;;;;;5060522;28;20785;-64
2021/07/26 08:51:20;;;;;;;18.57;16.70;;;;;;;;;;5057900;28;20467;-64
2021/07/26 08:53:49;;;;;;;18.20;16.30;;;;;;;;;;5063526;28;20304;-64
2021/07/26 08:56:17;;;;;;;18.33;16.80;;;;;;;;;;5065916;28;20472;-64
2021/07/26 08:58:42;;;;;;;17.80;16.27;;;;;;;;;;5061297;28;20459;-64
2021/07/26 09:01:08;;;;;;;16.93;15.43;;;;;;;;;;5066757;28;20471;-64
2021/07/26 09:03:33;;;;;;;16.67;15.30;;;;;;;;;;5064956;28;20224;-64
2021/07/26 09:05:58;;;;;;;17.20;15.70;;;;;;;;;;5058798;28;20227;-64
2021/07/26 09:08:31;;;;;;;14.83;13.60;;;;;;;;;;5045649;28;20232;-63
2021/07/26 09:11:00;;;;;;;17.50;15.90;;;;;;;;;;5065894;28;20221;-63
2021/07/26 09:13:38;;;;;;;17.60;15.90;;;;;;;;;;5066478;28;20952;-65
2021/07/26 09:16:20;;;;;;;19.47;17.77;;;;;;;;;;5067842;28;20455;-64
2021/07/26 09:18:58;;;;;;;20.30;18.50;;;;;;;;;;5068569;28;20458;-63
2021/07/26 09:21:46;;;;;;;19.37;17.60;;;;;;;;;;5057414;28;20985;-64
2021/07/26 09:24:12;;;;;;;17.67;16.20;;;;;;;;;;5068882;28;20481;-64
2021/07/26 09:26:37;;;;;;;18.10;16.57;;;;;;;;;;5067240;28;20542;-66
2021/07/26 09:29:26;;;;;;;17.07;15.67;;;;;;;;;;5050981;28;20253;-65
2021/07/26 09:31:59;;;;;;;18.07;16.57;;;;;;;;;;5064035;28;20216;-64
2021/07/26 09:34:24;;;;;;;20.00;18.33;;;;;;;;;;5040817;28;20472;-65
2021/07/26 09:36:49;;;;;;;18.60;17.10;;;;;;;;;;5054471;28;20851;-64
2021/07/26 09:39:29;;;;;;;18.07;16.57;;;;;;;;;;5047851;28;20300;-64
2021/07/26 09:41:59;;;;;;;19.23;17.63;;;;;;;;;;5063371;28;20230;-64
2021/07/26 09:44:28;;;;;;;19.83;18.00;;;;;;;;;;5072153;28;20467;-64
2021/07/26 09:46:54;;;;;;;20.07;18.50;;;;;;;;;;5057362;28;20871;-65
2021/07/26 09:49:21;;;;;;;17.57;16.00;;;;;;;;;;5066210;28;20458;-64
2021/07/26 09:52:08;;;;;;;17.57;16.23;;;;;;;;;;5064299;28;20479;-65
2021/07/26 09:54:40;;;;;;;20.43;18.53;;;;;;;;;;5061683;28;21002;-64
2021/07/26 09:57:26;;;;;;;20.77;18.90;;;;;;;;;;5056344;28;20451;-63
2021/07/26 09:59:52;;;;;;;18.17;16.63;;;;;;;;;;5060391;28;20545;-64
2021/07/26 10:02:25;;;;;;;18.43;16.90;;;;;;;;;;5063707;28;20464;-64
2021/07/26 10:04:50;;;;;;;19.23;17.63;;;;;;;;;;5068543;28;20460;-65
2021/07/26 10:07:17;;;;;;;18.87;17.37;;;;;;;;;;5059808;28;20468;-64
2021/07/26 10:09:44;;;;;;;19.07;17.47;;;;;;;;;;5067785;28;20225;-64
2021/07/26 10:12:17;;;;;;;18.77;17.27;;;;;;;;;;5062448;28;20464;-64
2021/07/26 10:14:45;;;;;;;20.73;18.90;;;;;;;;;;5046937;28;20470;-65
2021/07/26 10:17:10;;;;;;;20.40;18.70;;;;;;;;;;5068096;28;20469;-64
2021/07/26 10:19:35;;;;;;;19.93;18.23;;;;;;;;;;5067028;28;20459;-64
2021/07/26 10:22:03;;;;;;;22.37;20.60;;;;;;;;;;5056096;28;20308;-64
2021/07/26 10:24:53;;;;;;;22.40;20.60;;;;;;;;;;5067102;28;20608;-63
2021/07/26 10:27:24;;;;;;;22.17;20.27;;;;;;;;;;5062601;28;20851;-64
2021/07/26 10:29:53;;;;;;;19.97;18.27;;;;;;;;;;5043091;28;20470;-63
2021/07/26 10:32:39;;;;;;;15.73;14.53;;;;;;;;;;5066840;28;20772;-65
2021/07/26 10:35:35;;;;;;;18.00;16.47;;;;;;;;;;5068364;28;20837;-63
2021/07/26 10:38:01;;;;;;;22.13;19.97;;;;;;;;;;5059168;28;20463;-64
2021/07/26 10:40:30;;;;;;;16.90;15.60;;;;;;;;;;5061191;28;20551;-64
2021/07/26 10:43:03;;;;;;;21.07;19.27;;;;;;;;;;5062333;28;20225;-64
2021/07/26 10:45:49;;;;;;;18.57;16.77;;;;;;;;;;5048190;28;20469;-65
2021/07/26 10:48:22;;;;;;;14.70;13.57;;;;;;;;;;5056409;28;20450;-64
2021/07/26 10:50:49;;;;;;;15.30;14.10;;;;;;;;;;5057974;28;20960;-64
2021/07/26 10:53:32;;;;;;;17.27;15.80;;;;;;;;;;5064694;28;20622;-64
2021/07/26 10:56:11;;;;;;;19.80;18.20;;;;;;;;;;5060693;28;20568;-65
2021/07/26 10:58:39;;;;;;;14.83;13.57;;;;;;;;;;5054315;28;20463;-64
2021/07/26 11:01:16;;;;;;;14.80;13.40;;;;;;;;;;5067081;28;20462;-63
2021/07/26 11:03:42;;;;;;;17.03;15.73;;;;;;;;;;5063568;28;20980;-64
2021/07/26 11:06:07;;;;;;;9.57;8.83;;;;;;;;;;5060216;28;20459;-64
2021/07/26 11:08:33;;;;;;;12.80;11.70;;;;;;;;;;5063825;28;20564;-64
2021/07/26 11:10:58;;;;;;;13.33;12.33;;;;;;;;;;5065574;28;20221;-64
2021/07/26 11:13:46;;;;;;;14.00;12.80;;;;;;;;;;5064126;28;20304;-64
2021/07/26 11:16:12;;;;;;;16.77;15.17;;;;;;;;;;5046081;28;20254;-64
2021/07/26 11:18:39;;;;;;;16.40;15.10;;;;;;;;;;5060888;28;20938;-64
2021/07/26 11:21:06;;;;;;;16.80;15.20;;;;;;;;;;5053418;28;20679;-65
2021/07/26 11:23:41;;;;;;;11.13;10.07;;;;;;;;;;5067263;28;20487;-64
2021/07/26 11:26:32;;;;;;;17.67;16.27;;;;;;;;;;5062212;28;20839;-65
2021/07/26 11:29:03;;;;;;;9.93;8.93;;;;;;;;;;5039160;28;20473;-63
2021/07/26 11:31:31;;;;;;;11.10;10.20;;;;;;;;;;5048667;28;20456;-63
2021/07/26 11:34:07;;;;;;;8.30;7.60;;;;;;;;;;5065461;28;20553;-64
2021/07/26 11:36:32;;;;;;;9.60;8.77;;;;;;;;;;5061073;28;20478;-64
2021/07/26 11:39:03;;;;;;;9.80;9.00;;;;;;;;;;5061094;28;20459;-64
2021/07/26 11:41:29;;;;;;;9.80;9.00;;;;;;;;;;5060197;28;20678;-64
2021/07/26 11:43:55;;;;;;;9.57;8.80;;;;;;;;;;5064086;28;20464;-65
2021/07/26 11:46:21;;;;;;;9.40;8.27;;;;;;;;;;5066860;28;20217;-65
2021/07/26 11:48:51;;;;;;;10.00;9.20;;;;;;;;;;5064100;28;20455;-64
2021/07/26 11:51:25;;;;;;;11.03;10.07;;;;;;;;;;5060963;28;20455;-64
2021/07/26 11:53:59;;;;;;;8.50;7.90;;;;;;;;;;5068370;28;20524;-65
2021/07/26 11:56:28;;;;;;;12.37;11.37;;;;;;;;;;5062670;28;20523;-64
2021/07/26 11:58:53;;;;;;;9.83;9.13;;;;;;;;;;5071734;28;20465;-64
2021/07/26 12:01:19;;;;;;;13.37;12.40;;;;;;;;;;5061504;28;20463;-64
2021/07/26 12:03:44;;;;;;;15.30;13.93;;;;;;;;;;5062010;28;20312;-65
2021/07/26 12:06:09;;;;;;;13.40;12.30;;;;;;;;;;5067636;28;20274;-64
2021/07/26 12:08:35;;;;;;;13.03;12.07;;;;;;;;;;5067163;28;20303;-64
2021/07/26 12:11:15;;;;;;;7.50;6.90;;;;;;;;;;5060505;28;20341;-63
2021/07/26 12:13:40;;;;;;;7.10;6.50;;;;;;;;;;5060584;28;20233;-64
2021/07/26 12:16:12;;;;;;;10.20;9.20;;;;;;;;;;5068632;28;20478;-64
2021/07/26 12:18:37;;;;;;;9.93;9.03;;;;;;;;;;5060061;28;20576;-64
2021/07/26 12:21:03;;;;;;;10.20;9.40;;;;;;;;;;5055456;28;20460;-64
2021/07/26 12:23:30;;;;;;;9.17;8.17;;;;;;;;;;5064404;28;20266;-65
2021/07/26 12:25:56;;;;;;;9.43;8.63;;;;;;;;;;5059017;28;20459;-65
2021/07/26 12:28:49;;;;;;;9.13;8.23;;;;;;;;;;5062374;28;20443;-66
2021/07/26 12:31:29;;;;;;;10.00;8.70;;;;;;;;;;5049094;28;20373;-65
2021/07/26 12:34:14;;;;;;;9.40;8.60;;;;;;;;;;5056472;28;20455;-64
2021/07/26 12:36:39;;;;;;;10.57;9.53;;;;;;;;;;5074937;28;20454;-64
2021/07/26 12:39:07;;;;;;;9.30;8.60;;;;;;;;;;5063915;28;20465;-64
2021/07/26 12:41:34;;;;;;;9.87;9.07;;;;;;;;;;5062151;28;20225;-64
2021/07/26 12:44:16;;;;;;;8.57;7.90;;;;;;;;;;5071958;28;20455;-64
2021/07/26 12:46:48;;;;;;;11.03;10.10;;;;;;;;;;5057952;28;20451;-64
2021/07/26 12:49:25;;;;;;;10.30;9.40;;;;;;;;;;5058590;28;20465;-63
2021/07/26 12:51:52;;;;;;;11.67;10.77;;;;;;;;;;5065153;28;20450;-64
2021/07/26 12:54:21;;;;;;;9.17;8.47;;;;;;;;;;5071318;28;20455;-64
2021/07/26 12:56:47;;;;;;;9.50;8.60;;;;;;;;;;5062206;28;20868;-63
2021/07/26 12:59:12;;;;;;;9.70;9.10;;;;;;;;;;5069422;28;20486;-64
2021/07/26 13:01:38;;;;;;;8.63;7.83;;;;;;;;;;5066309;28;20231;-64
2021/07/26 13:04:05;;;;;;;9.97;9.20;;;;;;;;;;5070355;28;20616;-63
2021/07/26 13:06:31;;;;;;;11.23;10.50;;;;;;;;;;5063479;28;20216;-62
2021/07/26 13:08:56;;;;;;;8.47;7.97;;;;;;;;;;5063745;28;20541;-63
2021/07/26 13:11:21;;;;;;;11.03;10.23;;;;;;;;;;5074669;28;20254;-63
2021/07/26 13:13:46;;;;;;;11.40;10.60;;;;;;;;;;5069824;28;20220;-63
2021/07/26 13:16:14;;;;;;;24.90;23.17;;;;;;;;;;5063851;28;20684;-64
2021/07/26 13:18:39;;;;;;;14.52;13.63;;;;;;;;;;5074549;28;20216;-65
2021/07/26 13:21:05;;;;;;;11.77;10.68;;;;;;;;;;5062583;28;20235;-65
2021/07/26 13:23:30;;;;;;;27.30;25.42;;;;;;;;;;5071615;28;20291;-64
2021/07/26 13:25:55;;;;;;;27.92;25.75;;;;;;;;;;5068080;28;20547;-64
2021/07/26 13:28:21;;;;;;;18.35;16.95;;;;;;;;;;5080561;28;20276;-64
2021/07/26 13:30:47;;;;;;;12.38;11.55;;;;;;;;;;5075349;28;20228;-64
2021/07/26 13:33:13;;;;;;;8.95;8.18;;;;;;;;;;5070035;28;20228;-65
2021/07/26 13:35:39;;;;;;;13.43;12.52;;;;;;;;;;5067717;28;20623;-64
2021/07/26 13:38:05;;;;;;;9.35;8.75;;;;;;;;;;5070954;28;20285;-65
2021/07/26 13:40:31;;;;;;;10.67;9.77;;;;;;;;;;5062104;28;20296;-64
2021/07/26 13:42:56;;;;;;;9.83;9.03;;;;;;;;;;5067264;28;20253;-64
2021/07/26 13:45:22;;;;;;;8.60;8.00;;;;;;;;;;5067490;28;20354;-64
2021/07/26 13:47:49;;;;;;;10.50;9.60;;;;;;;;;;5068799;28;20232;-65
2021/07/26 13:50:14;;;;;;;10.77;9.87;;;;;;;;;;5061725;28;20307;-65
2021/07/26 13:52:39;;;;;;;9.27;8.67;;;;;;;;;;5075202;28;20255;-66
2021/07/26 13:55:05;;;;;;;8.87;8.07;;;;;;;;;;5071589;28;20230;-65
2021/07/26 13:57:31;;;;;;;8.33;7.53;;;;;;;;;;5060947;28;20232;-66
2021/07/26 13:59:56;;;;;;;9.23;8.30;;;;;;;;;;5060660;28;20545;-64
2021/07/26 14:02:22;;;;;;;9.20;8.50;;;;;;;;;;5061979;28;20222;-64
2021/07/26 14:04:48;;;;;;;8.70;7.80;;;;;;;;;;5068108;28;20247;-66
2021/07/26 14:07:13;;;;;;;8.10;7.50;;;;;;;;;;5071710;28;20270;-65
2021/07/26 14:09:39;;;;;;;10.57;8.63;;;;;;;;;;5063285;28;20209;-65
2021/07/26 14:12:04;;;;;;;8.77;7.97;;;;;;;;;;5071365;28;20220;-65
2021/07/26 14:14:31;;;;;;;9.60;8.80;;;;;;;;;;5068484;28;20543;-64
2021/07/26 14:16:58;;;;;;;10.60;8.67;;;;;;;;;;5065000;28;20281;-64
2021/07/26 14:19:25;;;;;;;6.37;5.90;;;;;;;;;;5064692;28;21365;-65
2021/07/26 14:21:51;;;;;;;8.20;7.53;;;;;;;;;;5058295;28;20526;-65
2021/07/26 14:24:16;;;;;;;139.00;126.80;;;;;;;;;;5069643;28;20487;-66